Time,TemperatureF,DewpointF,PressureIn,WindDirection,WindDirectionDegrees,WindSpeedMPH,WindSpeedGustMPH,Humidity,HourlyPrecipIn,Conditions,Clouds,dailyrainin,SoftwareType,DateUTC
2013-02-17 00:00:00,48.0,25.0,30.06,North,353,6.0,12.0,41,0.00,,,0.00,Meteo,2013-02-17 05:00:00,
2013-02-17 00:01:00,48.0,25.0,30.06,North,352,9.0,19.0,41,0.00,,,0.00,Meteo,2013-02-17 05:01:00,
2013-02-17 00:04:00,48.0,25.0,30.06,NNW,332,9.0,19.0,41,0.00,,,0.00,Meteo,2013-02-17 05:04:00,
2013-02-17 00:05:00,48.0,25.0,30.06,NNW,332,9.0,19.0,41,0.00,,,0.00,Meteo,2013-02-17 05:05:00,
2013-02-17 00:10:00,48.0,24.0,30.06,NNW,348,10.0,16.0,39,0.00,,,0.00,Meteo,2013-02-17 05:10:00,
2013-02-17 00:16:00,48.0,25.0,30.07,NW,324,5.0,10.0,40,0.00,,,0.00,Meteo,2013-02-17 05:16:00,
2013-02-17 00:21:00,48.0,25.0,30.07,NW,308,2.0,5.0,40,0.00,,,0.00,Meteo,2013-02-17 05:21:00,
2013-02-17 00:27:00,47.0,23.0,30.07,NNW,346,13.0,28.0,39,0.00,,,0.00,Meteo,2013-02-17 05:27:00,
2013-02-17 00:32:00,47.0,21.0,30.08,NW,322,4.0,10.0,36,0.00,,,0.00,Meteo,2013-02-17 05:32:00,
2013-02-17 00:37:00,47.0,21.0,30.08,NNW,327,10.0,13.0,35,0.00,,,0.00,Meteo,2013-02-17 05:37:00,
2013-02-17 00:42:00,47.0,20.0,30.08,NNW,347,8.0,13.0,34,0.00,,,0.00,Meteo,2013-02-17 05:42:00,
2013-02-17 00:47:00,47.0,19.0,30.09,NNW,328,8.0,14.0,33,0.00,,,0.00,Meteo,2013-02-17 05:47:00,
2013-02-17 00:52:00,47.0,20.0,30.09,NNW,336,6.0,13.0,34,0.00,,,0.00,Meteo,2013-02-17 05:52:00,
2013-02-17 00:57:00,46.0,19.0,30.09,NNW,342,3.0,10.0,33,0.00,,,0.00,Meteo,2013-02-17 05:57:00,
2013-02-17 01:02:00,46.0,17.0,30.09,NNW,338,7.0,13.0,31,0.00,,,0.00,Meteo,2013-02-17 06:02:00,
2013-02-17 01:07:00,46.0,18.0,30.09,NNW,333,8.0,13.0,32,0.00,,,0.00,Meteo,2013-02-17 06:07:00,
2013-02-17 01:12:00,46.0,18.0,30.09,NW,324,7.0,12.0,32,0.00,,,0.00,Meteo,2013-02-17 06:12:00,
2013-02-17 01:17:00,46.0,19.0,30.09,NNW,338,5.0,11.0,33,0.00,,,0.00,Meteo,2013-02-17 06:17:00,
2013-02-17 01:22:00,45.0,17.0,30.09,NNW,341,3.0,5.0,32,0.00,,,0.00,Meteo,2013-02-17 06:22:00,
2013-02-17 01:27:00,45.0,18.0,30.09,NNW,343,5.0,10.0,33,0.00,,,0.00,Meteo,2013-02-17 06:27:00,
2013-02-17 01:32:00,45.0,18.0,30.09,NNW,332,7.0,13.0,33,0.00,,,0.00,Meteo,2013-02-17 06:32:00,
2013-02-17 01:37:00,45.0,18.0,30.09,NW,322,3.0,5.0,34,0.00,,,0.00,Meteo,2013-02-17 06:37:00,
2013-02-17 01:42:00,45.0,18.0,30.09,NW,311,6.0,13.0,34,0.00,,,0.00,Meteo,2013-02-17 06:42:00,
2013-02-17 01:47:00,45.0,18.0,30.10,NNW,338,6.0,11.0,34,0.00,,,0.00,Meteo,2013-02-17 06:47:00,
2013-02-17 01:53:00,44.0,18.0,30.10,North,6,8.0,13.0,35,0.00,,,0.00,Meteo,2013-02-17 06:53:00,
2013-02-17 01:58:00,44.0,19.0,30.10,NNW,330,3.0,6.0,36,0.00,,,0.00,Meteo,2013-02-17 06:58:00,
2013-02-17 02:04:00,44.0,18.0,30.10,NNW,337,3.0,5.0,35,0.00,,,0.00,Meteo,2013-02-17 07:04:00,
2013-02-17 02:09:00,44.0,19.0,30.10,NNW,337,4.0,7.0,36,0.00,,,0.00,Meteo,2013-02-17 07:09:00,
2013-02-17 02:14:00,44.0,19.0,30.10,NNW,346,3.0,7.0,36,0.00,,,0.00,Meteo,2013-02-17 07:14:00,
2013-02-17 02:19:00,44.0,19.0,30.10,NNW,332,3.0,6.0,37,0.00,,,0.00,Meteo,2013-02-17 07:19:00,
2013-02-17 02:24:00,43.0,19.0,30.10,NNW,327,2.0,4.0,37,0.00,,,0.00,Meteo,2013-02-17 07:24:00,
2013-02-17 02:29:00,43.0,18.0,30.10,North,351,2.0,5.0,36,0.00,,,0.00,Meteo,2013-02-17 07:29:00,
2013-02-17 02:34:00,43.0,19.0,30.10,NW,326,3.0,7.0,38,0.00,,,0.00,Meteo,2013-02-17 07:34:00,
2013-02-17 02:39:00,43.0,19.0,30.10,North,349,5.0,11.0,38,0.00,,,0.00,Meteo,2013-02-17 07:39:00,
2013-02-17 02:44:00,43.0,19.0,30.10,NNW,345,3.0,6.0,38,0.00,,,0.00,Meteo,2013-02-17 07:44:00,
2013-02-17 02:49:00,43.0,19.0,30.11,North,351,2.0,6.0,38,0.00,,,0.00,Meteo,2013-02-17 07:49:00,
2013-02-17 02:54:00,42.0,18.0,30.11,NNW,344,6.0,11.0,38,0.00,,,0.00,Meteo,2013-02-17 07:54:00,
2013-02-17 02:59:00,42.0,19.0,30.11,North,351,3.0,7.0,39,0.00,,,0.00,Meteo,2013-02-17 07:59:00,
2013-02-17 03:04:00,42.0,19.0,30.11,NNW,344,5.0,8.0,39,0.00,,,0.00,Meteo,2013-02-17 08:04:00,
2013-02-17 03:09:00,42.0,19.0,30.11,North,352,3.0,5.0,39,0.00,,,0.00,Meteo,2013-02-17 08:09:00,
2013-02-17 03:14:00,42.0,19.0,30.11,NNW,347,3.0,6.0,40,0.00,,,0.00,Meteo,2013-02-17 08:14:00,
2013-02-17 03:19:00,42.0,19.0,30.12,North,350,4.0,6.0,40,0.00,,,0.00,Meteo,2013-02-17 08:19:00,
2013-02-17 03:24:00,42.0,21.0,30.12,North,353,2.0,4.0,42,0.00,,,0.00,Meteo,2013-02-17 08:24:00,
2013-02-17 03:29:00,41.0,20.0,30.12,North,352,3.0,5.0,43,0.00,,,0.00,Meteo,2013-02-17 08:29:00,
2013-02-17 03:34:00,41.0,20.0,30.12,North,356,4.0,6.0,43,0.00,,,0.00,Meteo,2013-02-17 08:34:00,
2013-02-17 03:39:00,41.0,20.0,30.12,NNW,348,4.0,8.0,43,0.00,,,0.00,Meteo,2013-02-17 08:39:00,
2013-02-17 03:44:00,41.0,21.0,30.12,North,353,2.0,2.0,44,0.00,,,0.00,Meteo,2013-02-17 08:44:00,
2013-02-17 03:50:00,40.0,20.0,30.12,North,352,1.0,3.0,44,0.00,,,0.00,Meteo,2013-02-17 08:50:00,
2013-02-17 03:55:00,40.0,21.0,30.12,North,350,3.0,3.0,46,0.00,,,0.00,Meteo,2013-02-17 08:55:00,
2013-02-17 04:00:00,40.0,21.0,30.12,NNW,342,2.0,3.0,46,0.00,,,0.00,Meteo,2013-02-17 09:00:00,
2013-02-17 04:05:00,40.0,20.0,30.12,NNW,346,2.0,6.0,45,0.00,,,0.00,Meteo,2013-02-17 09:05:00,
2013-02-17 04:10:00,40.0,20.0,30.12,NNW,340,1.0,3.0,45,0.00,,,0.00,Meteo,2013-02-17 09:10:00,
2013-02-17 04:15:00,40.0,20.0,30.13,NNW,333,1.0,3.0,45,0.00,,,0.00,Meteo,2013-02-17 09:15:00,
2013-02-17 04:20:00,40.0,21.0,30.13,NNW,345,1.0,3.0,46,0.00,,,0.00,Meteo,2013-02-17 09:20:00,
2013-02-17 04:25:00,40.0,21.0,30.13,NNW,346,1.0,2.0,47,0.00,,,0.00,Meteo,2013-02-17 09:25:00,
2013-02-17 04:30:00,39.0,20.0,30.13,NNW,346,2.0,2.0,47,0.00,,,0.00,Meteo,2013-02-17 09:30:00,
2013-02-17 04:35:00,39.0,21.0,30.13,NNW,347,2.0,5.0,49,0.00,,,0.00,Meteo,2013-02-17 09:35:00,
2013-02-17 04:40:00,39.0,21.0,30.13,NNW,344,2.0,3.0,49,0.00,,,0.00,Meteo,2013-02-17 09:40:00,
2013-02-17 04:45:00,38.0,21.0,30.13,NNW,341,4.0,6.0,49,0.00,,,0.00,Meteo,2013-02-17 09:45:00,
2013-02-17 04:50:00,38.0,21.0,30.13,NNW,331,2.0,3.0,50,0.00,,,0.00,Meteo,2013-02-17 09:50:00,
2013-02-17 04:55:00,38.0,21.0,30.13,North,354,1.0,3.0,50,0.00,,,0.00,Meteo,2013-02-17 09:55:00,
2013-02-17 05:00:00,38.0,21.0,30.14,NNW,346,2.0,3.0,50,0.00,,,0.00,Meteo,2013-02-17 10:00:00,
2013-02-17 05:05:00,38.0,21.0,30.14,North,350,5.0,8.0,51,0.00,,,0.00,Meteo,2013-02-17 10:05:00,
2013-02-17 05:10:00,38.0,21.0,30.14,North,351,3.0,7.0,50,0.00,,,0.00,Meteo,2013-02-17 10:10:00,
2013-02-17 05:15:00,38.0,21.0,30.14,North,352,3.0,6.0,49,0.00,,,0.00,Meteo,2013-02-17 10:15:00,
2013-02-17 05:21:00,38.0,20.0,30.14,North,350,2.0,4.0,48,0.00,,,0.00,Meteo,2013-02-17 10:21:00,
2013-02-17 05:26:00,38.0,20.0,30.14,NNW,348,2.0,5.0,48,0.00,,,0.00,Meteo,2013-02-17 10:26:00,
2013-02-17 05:31:00,38.0,20.0,30.15,NNW,345,2.0,5.0,47,0.00,,,0.00,Meteo,2013-02-17 10:31:00,
2013-02-17 05:36:00,38.0,20.0,30.15,NNW,347,2.0,5.0,48,0.00,,,0.00,Meteo,2013-02-17 10:36:00,
2013-02-17 05:41:00,38.0,20.0,30.15,NNW,343,2.0,5.0,48,0.00,,,0.00,Meteo,2013-02-17 10:41:00,
2013-02-17 05:46:00,38.0,21.0,30.16,NNW,340,2.0,3.0,49,0.00,,,0.00,Meteo,2013-02-17 10:46:00,
2013-02-17 05:51:00,38.0,21.0,30.16,NNW,346,0.0,1.0,49,0.00,,,0.00,Meteo,2013-02-17 10:51:00,
2013-02-17 05:57:00,37.0,20.0,30.16,NNW,345,2.0,3.0,50,0.00,,,0.00,Meteo,2013-02-17 10:57:00,
2013-02-17 06:03:00,37.0,20.0,30.17,NNE,16,1.0,5.0,50,0.00,,,0.00,Meteo,2013-02-17 11:03:00,
2013-02-17 06:08:00,37.0,21.0,30.17,NNW,345,1.0,2.0,51,0.00,,,0.00,Meteo,2013-02-17 11:08:00,
2013-02-17 06:14:00,37.0,21.0,30.17,North,0,0.0,0.0,51,0.00,,,0.00,Meteo,2013-02-17 11:14:00,
2013-02-17 06:20:00,37.0,21.0,30.18,NW,326,1.0,2.0,52,0.00,,,0.00,Meteo,2013-02-17 11:20:00,
2013-02-17 06:25:00,36.0,21.0,30.18,NW,326,0.0,1.0,53,0.00,,,0.00,Meteo,2013-02-17 11:25:00,
2013-02-17 06:30:00,36.0,21.0,30.18,NW,324,1.0,2.0,54,0.00,,,0.00,Meteo,2013-02-17 11:30:00,
2013-02-17 06:35:00,36.0,21.0,30.19,North,0,0.0,0.0,55,0.00,,,0.00,Meteo,2013-02-17 11:35:00,
2013-02-17 06:41:00,35.0,21.0,30.19,NW,324,0.0,2.0,56,0.00,,,0.00,Meteo,2013-02-17 11:41:00,
2013-02-17 06:47:00,35.0,21.0,30.20,North,0,0.0,0.0,57,0.00,,,0.00,Meteo,2013-02-17 11:47:00,
2013-02-17 06:52:00,35.0,21.0,30.20,North,0,0.0,0.0,57,0.00,,,0.00,Meteo,2013-02-17 11:52:00,
2013-02-17 06:57:00,35.0,21.0,30.20,NNW,347,1.0,3.0,57,0.00,,,0.00,Meteo,2013-02-17 11:57:00,
2013-02-17 07:03:00,35.0,21.0,30.20,North,0,0.0,0.0,57,0.00,,,0.00,Meteo,2013-02-17 12:03:00,
2013-02-17 07:08:00,35.0,21.0,30.20,NNW,345,1.0,3.0,57,0.00,,,0.00,Meteo,2013-02-17 12:08:00,
2013-02-17 07:13:00,35.0,22.0,30.20,North,0,0.0,0.0,58,0.00,,,0.00,Meteo,2013-02-17 12:13:00,
2013-02-17 07:18:00,34.0,21.0,30.20,NNW,346,1.0,2.0,58,0.00,,,0.00,Meteo,2013-02-17 12:18:00,
2013-02-17 07:23:00,34.0,21.0,30.20,NNW,345,0.0,2.0,58,0.00,,,0.00,Meteo,2013-02-17 12:23:00,
2013-02-17 07:28:00,34.0,21.0,30.20,North,0,0.0,0.0,59,0.00,,,0.00,Meteo,2013-02-17 12:28:00,
2013-02-17 07:33:00,34.0,22.0,30.20,NW,317,0.0,1.0,60,0.00,,,0.00,Meteo,2013-02-17 12:33:00,
2013-02-17 07:38:00,34.0,22.0,30.20,NW,316,2.0,4.0,61,0.00,,,0.00,Meteo,2013-02-17 12:38:00,
2013-02-17 07:44:00,34.0,21.0,30.20,NW,310,1.0,2.0,59,0.00,,,0.00,Meteo,2013-02-17 12:44:00,
2013-02-17 07:49:00,35.0,22.0,30.21,NW,320,2.0,3.0,58,0.00,,,0.00,Meteo,2013-02-17 12:49:00,
2013-02-17 07:55:00,36.0,21.0,30.21,North,351,4.0,8.0,54,0.00,,,0.00,Meteo,2013-02-17 12:55:00,
2013-02-17 08:00:00,37.0,21.0,30.21,NNW,339,5.0,8.0,51,0.00,,,0.00,Meteo,2013-02-17 13:00:00,
2013-02-17 08:05:00,38.0,21.0,30.22,North,351,1.0,2.0,49,0.00,,,0.00,Meteo,2013-02-17 13:05:00,
2013-02-17 08:11:00,38.0,19.0,30.22,NNW,344,5.0,8.0,46,0.00,,,0.00,Meteo,2013-02-17 13:11:00,
2013-02-17 08:16:00,38.0,19.0,30.22,NNW,340,2.0,6.0,46,0.00,,,0.00,Meteo,2013-02-17 13:16:00,
2013-02-17 08:21:00,39.0,20.0,30.22,NNW,344,5.0,7.0,46,0.00,,,0.00,Meteo,2013-02-17 13:21:00,
2013-02-17 08:26:00,39.0,19.0,30.22,NNW,348,2.0,4.0,45,0.00,,,0.00,Meteo,2013-02-17 13:26:00,
2013-02-17 08:31:00,39.0,19.0,30.23,NNW,344,7.0,11.0,44,0.00,,,0.00,Meteo,2013-02-17 13:31:00,
2013-02-17 08:37:00,40.0,19.0,30.23,NNW,339,3.0,4.0,43,0.00,,,0.00,Meteo,2013-02-17 13:37:00,
2013-02-17 08:42:00,40.0,19.0,30.23,North,351,6.0,9.0,43,0.00,,,0.00,Meteo,2013-02-17 13:42:00,
2013-02-17 08:47:00,40.0,19.0,30.24,North,350,9.0,13.0,43,0.00,,,0.00,Meteo,2013-02-17 13:47:00,
2013-02-17 08:52:00,40.0,18.0,30.24,North,353,12.0,17.0,40,0.00,,,0.00,Meteo,2013-02-17 13:52:00,
2013-02-17 08:57:00,40.0,17.0,30.24,North,355,6.0,12.0,39,0.00,,,0.00,Meteo,2013-02-17 13:57:00,
2013-02-17 09:02:00,41.0,17.0,30.25,NNW,337,6.0,11.0,37,0.00,,,0.00,Meteo,2013-02-17 14:02:00,
2013-02-17 09:07:00,41.0,17.0,30.25,North,353,8.0,12.0,38,0.00,,,0.00,Meteo,2013-02-17 14:07:00,
2013-02-17 09:12:00,42.0,18.0,30.25,NNW,338,10.0,19.0,37,0.00,,,0.00,Meteo,2013-02-17 14:12:00,
2013-02-17 09:17:00,42.0,16.0,30.25,NNW,348,9.0,12.0,35,0.00,,,0.00,Meteo,2013-02-17 14:17:00,
2013-02-17 09:22:00,42.0,16.0,30.25,NNW,348,10.0,16.0,34,0.00,,,0.00,Meteo,2013-02-17 14:22:00,
2013-02-17 09:27:00,42.0,16.0,30.25,North,350,12.0,17.0,34,0.00,,,0.00,Meteo,2013-02-17 14:27:00,
2013-02-17 09:32:00,42.0,16.0,30.25,NNW,335,4.0,7.0,34,0.00,,,0.00,Meteo,2013-02-17 14:32:00,
2013-02-17 09:37:00,42.0,15.0,30.25,NNW,347,8.0,13.0,33,0.00,,,0.00,Meteo,2013-02-17 14:37:00,
2013-02-17 09:42:00,43.0,17.0,30.25,North,349,3.0,6.0,34,0.00,,,0.00,Meteo,2013-02-17 14:42:00,
2013-02-17 09:47:00,43.0,15.0,30.25,NNW,342,4.0,7.0,32,0.00,,,0.00,Meteo,2013-02-17 14:47:00,
2013-02-17 09:53:00,43.0,14.0,30.25,NNW,341,8.0,12.0,31,0.00,,,0.00,Meteo,2013-02-17 14:53:00,
2013-02-17 09:58:00,44.0,15.0,30.25,NNW,339,9.0,17.0,30,0.00,,,0.00,Meteo,2013-02-17 14:58:00,
2013-02-17 10:03:00,44.0,15.0,30.25,NW,317,6.0,11.0,30,0.00,,,0.00,Meteo,2013-02-17 15:03:00,
2013-02-17 10:08:00,45.0,14.0,30.25,NNW,347,9.0,15.0,28,0.00,,,0.00,Meteo,2013-02-17 15:08:00,
2013-02-17 10:13:00,45.0,14.0,30.25,NNW,343,7.0,13.0,28,0.00,,,0.00,Meteo,2013-02-17 15:13:00,
2013-02-17 10:18:00,45.0,13.0,30.26,NNW,346,5.0,11.0,27,0.00,,,0.00,Meteo,2013-02-17 15:18:00,
2013-02-17 10:23:00,46.0,16.0,30.26,NNW,337,6.0,11.0,29,0.00,,,0.00,Meteo,2013-02-17 15:23:00,
2013-02-17 10:28:00,46.0,13.0,30.26,NW,319,6.0,14.0,26,0.00,,,0.00,Meteo,2013-02-17 15:28:00,
2013-02-17 10:33:00,46.0,16.0,30.26,NNW,335,7.0,13.0,29,0.00,,,0.00,Meteo,2013-02-17 15:33:00,
2013-02-17 10:38:00,46.0,15.0,30.26,NNW,340,5.0,12.0,28,0.00,,,0.00,Meteo,2013-02-17 15:38:00,
2013-02-17 10:43:00,47.0,16.0,30.26,North,352,3.0,6.0,28,0.00,,,0.00,Meteo,2013-02-17 15:43:00,
2013-02-17 10:48:00,47.0,16.0,30.26,WNW,303,9.0,16.0,28,0.00,,,0.00,Meteo,2013-02-17 15:48:00,
2013-02-17 10:53:00,47.0,15.0,30.26,NW,314,5.0,8.0,27,0.00,,,0.00,Meteo,2013-02-17 15:53:00,
2013-02-17 10:58:00,48.0,15.0,30.26,North,352,9.0,14.0,26,0.00,,,0.00,Meteo,2013-02-17 15:58:00,
2013-02-17 11:03:00,48.0,17.0,30.25,NNW,328,5.0,6.0,29,0.00,,,0.00,Meteo,2013-02-17 16:03:00,
2013-02-17 11:08:00,49.0,16.0,30.25,NNW,331,8.0,12.0,27,0.00,,,0.00,Meteo,2013-02-17 16:08:00,
2013-02-17 11:13:00,49.0,16.0,30.25,NNW,333,1.0,2.0,27,0.00,,,0.00,Meteo,2013-02-17 16:13:00,
2013-02-17 11:18:00,49.0,16.0,30.25,NNW,338,5.0,8.0,26,0.00,,,0.00,Meteo,2013-02-17 16:18:00,
2013-02-17 11:23:00,49.0,16.0,30.25,North,353,6.0,8.0,26,0.00,,,0.00,Meteo,2013-02-17 16:23:00,
2013-02-17 11:28:00,49.0,16.0,30.25,North,354,5.0,8.0,26,0.00,,,0.00,Meteo,2013-02-17 16:28:00,
2013-02-17 11:34:00,50.0,16.0,30.26,North,351,8.0,11.0,26,0.00,,,0.00,Meteo,2013-02-17 16:34:00,
2013-02-17 11:39:00,49.0,13.0,30.26,North,353,12.0,16.0,23,0.00,,,0.00,Meteo,2013-02-17 16:39:00,
2013-02-17 11:44:00,49.0,14.0,30.26,North,350,6.0,11.0,24,0.00,,,0.00,Meteo,2013-02-17 16:44:00,
2013-02-17 11:49:00,49.0,13.0,30.25,NW,307,5.0,10.0,23,0.00,,,0.00,Meteo,2013-02-17 16:49:00,
2013-02-17 11:54:00,50.0,13.0,30.25,NNW,339,7.0,12.0,22,0.00,,,0.00,Meteo,2013-02-17 16:54:00,
2013-02-17 11:59:00,50.0,12.0,30.25,North,352,4.0,10.0,21,0.00,,,0.00,Meteo,2013-02-17 16:59:00,
2013-02-17 12:04:00,50.0,12.0,30.25,North,354,7.0,13.0,21,0.00,,,0.00,Meteo,2013-02-17 17:04:00,
2013-02-17 12:09:00,50.0,13.0,30.25,North,5,5.0,13.0,22,0.00,,,0.00,Meteo,2013-02-17 17:09:00,
2013-02-17 12:15:00,50.0,13.0,30.25,North,352,7.0,13.0,22,0.00,,,0.00,Meteo,2013-02-17 17:15:00,
2013-02-17 12:20:00,50.0,12.0,30.25,NNE,24,5.0,9.0,21,0.00,,,0.00,Meteo,2013-02-17 17:20:00,
2013-02-17 12:25:00,50.0,11.0,30.25,North,8,10.0,18.0,20,0.00,,,0.00,Meteo,2013-02-17 17:25:00,
2013-02-17 12:31:00,50.0,13.0,30.25,North,352,7.0,12.0,22,0.00,,,0.00,Meteo,2013-02-17 17:31:00,
2013-02-17 12:36:00,51.0,12.0,30.25,North,4,4.0,7.0,21,0.00,,,0.00,Meteo,2013-02-17 17:36:00,
2013-02-17 12:41:00,51.0,10.0,30.25,NNE,14,5.0,9.0,19,0.00,,,0.00,Meteo,2013-02-17 17:41:00,
2013-02-17 12:47:00,51.0,10.0,30.24,NNW,342,5.0,16.0,19,0.00,,,0.00,Meteo,2013-02-17 17:47:00,
2013-02-17 12:52:00,51.0,11.0,30.24,North,3,5.0,17.0,20,0.00,,,0.00,Meteo,2013-02-17 17:52:00,
2013-02-17 12:58:00,51.0,11.0,30.24,North,350,8.0,11.0,20,0.00,,,0.00,Meteo,2013-02-17 17:58:00,
2013-02-17 13:03:00,51.0,10.0,30.24,North,353,4.0,6.0,19,0.00,,,0.00,Meteo,2013-02-17 18:03:00,
2013-02-17 13:08:00,51.0,10.0,30.24,WNW,301,5.0,9.0,19,0.00,,,0.00,Meteo,2013-02-17 18:08:00,
2013-02-17 13:13:00,52.0,12.0,30.24,NNW,327,4.0,7.0,20,0.00,,,0.00,Meteo,2013-02-17 18:13:00,
2013-02-17 13:18:00,52.0,11.0,30.23,NNW,340,8.0,12.0,19,0.00,,,0.00,Meteo,2013-02-17 18:18:00,
2013-02-17 13:23:00,52.0,12.0,30.23,NNE,24,4.0,7.0,20,0.00,,,0.00,Meteo,2013-02-17 18:23:00,
2013-02-17 13:28:00,52.0,12.0,30.23,NNW,327,5.0,11.0,20,0.00,,,0.00,Meteo,2013-02-17 18:28:00,
2013-02-17 13:33:00,52.0,12.0,30.23,NNW,341,7.0,10.0,20,0.00,,,0.00,Meteo,2013-02-17 18:33:00,
2013-02-17 13:38:00,53.0,12.0,30.23,NNW,334,6.0,10.0,19,0.00,,,0.00,Meteo,2013-02-17 18:38:00,
2013-02-17 13:43:00,53.0,12.0,30.23,NW,309,5.0,10.0,19,0.00,,,0.00,Meteo,2013-02-17 18:43:00,
2013-02-17 13:49:00,53.0,12.0,30.22,NNW,336,3.0,6.0,19,0.00,,,0.00,Meteo,2013-02-17 18:49:00,
2013-02-17 13:54:00,53.0,12.0,30.22,NE,34,2.0,5.0,19,0.00,,,0.00,Meteo,2013-02-17 18:54:00,
2013-02-17 13:59:00,54.0,14.0,30.22,NNE,21,3.0,7.0,20,0.00,,,0.00,Meteo,2013-02-17 18:59:00,
2013-02-17 14:04:00,55.0,14.0,30.22,North,360,6.0,9.0,19,0.00,,,0.00,Meteo,2013-02-17 19:04:00,
2013-02-17 14:09:00,54.0,11.0,30.22,North,357,8.0,10.0,18,0.00,,,0.00,Meteo,2013-02-17 19:09:00,
2013-02-17 14:15:00,53.0,12.0,30.22,NW,308,3.0,6.0,19,0.00,,,0.00,Meteo,2013-02-17 19:15:00,
2013-02-17 14:21:00,53.0,12.0,30.22,North,4,3.0,7.0,19,0.00,,,0.00,Meteo,2013-02-17 19:21:00,
2013-02-17 14:26:00,53.0,9.4,30.22,North,4,6.0,12.0,17,0.00,,,0.00,Meteo,2013-02-17 19:26:00,
2013-02-17 14:31:00,53.0,11.0,30.22,NNW,331,3.0,6.0,18,0.00,,,0.00,Meteo,2013-02-17 19:31:00,
2013-02-17 14:36:00,53.0,11.0,30.21,NNE,26,3.0,6.0,18,0.00,,,0.00,Meteo,2013-02-17 19:36:00,
2013-02-17 14:41:00,53.0,14.0,30.21,North,356,6.0,11.0,21,0.00,,,0.00,Meteo,2013-02-17 19:41:00,
2013-02-17 14:46:00,53.0,14.0,30.21,ENE,58,3.0,10.0,21,0.00,,,0.00,Meteo,2013-02-17 19:46:00,
2013-02-17 15:02:00,54.0,14.0,30.21,North,358,3.0,5.0,20,0.00,,,0.00,Meteo,2013-02-17 20:02:00,
2013-02-17 15:08:00,54.0,15.0,30.21,North,3,8.0,13.0,21,0.00,,,0.00,Meteo,2013-02-17 20:08:00,
2013-02-17 15:13:00,53.0,14.0,30.21,NNW,329,4.0,6.0,21,0.00,,,0.00,Meteo,2013-02-17 20:13:00,
2013-02-17 15:18:00,52.0,17.0,30.21,NW,326,4.0,6.0,25,0.00,,,0.00,Meteo,2013-02-17 20:18:00,
2013-02-17 15:23:00,53.0,13.0,30.21,North,353,5.0,8.0,20,0.00,,,0.00,Meteo,2013-02-17 20:23:00,
2013-02-17 15:28:00,53.0,12.0,30.21,North,8,5.0,10.0,19,0.00,,,0.00,Meteo,2013-02-17 20:28:00,
2013-02-17 15:33:00,53.0,13.0,30.21,North,354,3.0,6.0,20,0.00,,,0.00,Meteo,2013-02-17 20:33:00,
2013-02-17 15:38:00,53.0,14.0,30.21,North,0,6.0,10.0,21,0.00,,,0.00,Meteo,2013-02-17 20:38:00,
2013-02-17 15:43:00,52.0,12.0,30.21,WSW,242,2.0,3.0,20,0.00,,,0.00,Meteo,2013-02-17 20:43:00,
2013-02-17 15:48:00,52.0,12.0,30.21,West,277,1.0,2.0,20,0.00,,,0.00,Meteo,2013-02-17 20:48:00,
2013-02-17 15:53:00,53.0,14.0,30.21,NNW,343,5.0,7.0,21,0.00,,,0.00,Meteo,2013-02-17 20:53:00,
2013-02-17 15:58:00,53.0,13.0,30.21,NW,310,3.0,6.0,20,0.00,,,0.00,Meteo,2013-02-17 20:58:00,
2013-02-17 16:03:00,53.0,14.0,30.20,WNW,287,5.0,7.0,21,0.00,,,0.00,Meteo,2013-02-17 21:03:00,
2013-02-17 16:08:00,53.0,13.0,30.20,WNW,282,1.0,1.0,20,0.00,,,0.00,Meteo,2013-02-17 21:08:00,
2013-02-17 16:13:00,53.0,12.0,30.20,NNW,340,3.0,6.0,19,0.00,,,0.00,Meteo,2013-02-17 21:13:00,
2013-02-17 16:19:00,53.0,13.0,30.20,NNE,12,5.0,7.0,20,0.00,,,0.00,Meteo,2013-02-17 21:19:00,
2013-02-17 16:41:00,53.0,12.0,30.21,North,359,4.0,6.0,19,0.00,,,0.00,Meteo,2013-02-17 21:41:00,
2013-02-17 16:46:00,52.0,11.0,30.21,North,349,4.0,6.0,19,0.00,,,0.00,Meteo,2013-02-17 21:46:00,
2013-02-17 16:51:00,52.0,11.0,30.21,NW,316,1.0,3.0,19,0.00,,,0.00,Meteo,2013-02-17 21:51:00,
2013-02-17 16:56:00,52.0,9.8,30.21,NW,320,2.0,2.0,18,0.00,,,0.00,Meteo,2013-02-17 21:56:00,
2013-02-17 17:01:00,52.0,11.0,30.21,NW,323,2.0,3.0,19,0.00,,,0.00,Meteo,2013-02-17 22:01:00,
2013-02-17 17:06:00,52.0,8.6,30.21,NW,326,2.0,3.0,17,0.00,,,0.00,Meteo,2013-02-17 22:06:00,
2013-02-17 17:11:00,52.0,8.6,30.21,North,356,4.0,6.0,17,0.00,,,0.00,Meteo,2013-02-17 22:11:00,
2013-02-17 17:16:00,52.0,9.8,30.21,North,350,6.0,8.0,18,0.00,,,0.00,Meteo,2013-02-17 22:16:00,
2013-02-17 17:21:00,51.0,7.7,30.21,North,359,5.0,6.0,17,0.00,,,0.00,Meteo,2013-02-17 22:21:00,
2013-02-17 17:26:00,51.0,10.0,30.21,North,354,1.0,2.0,19,0.00,,,0.00,Meteo,2013-02-17 22:26:00,
2013-02-17 17:31:00,51.0,7.7,30.21,North,357,2.0,3.0,17,0.00,,,0.00,Meteo,2013-02-17 22:31:00,
2013-02-17 17:36:00,51.0,14.0,30.21,North,357,2.0,6.0,22,0.00,,,0.00,Meteo,2013-02-17 22:36:00,
2013-02-17 17:41:00,51.0,7.7,30.21,North,355,5.0,6.0,17,0.00,,,0.00,Meteo,2013-02-17 22:41:00,
2013-02-17 17:46:00,51.0,10.0,30.21,North,354,2.0,3.0,19,0.00,,,0.00,Meteo,2013-02-17 22:46:00,
2013-02-17 17:51:00,50.0,9.4,30.21,NNW,346,3.0,5.0,19,0.00,,,0.00,Meteo,2013-02-17 22:51:00,
2013-02-17 17:56:00,50.0,9.4,30.21,North,352,2.0,5.0,19,0.00,,,0.00,Meteo,2013-02-17 22:56:00,
2013-02-17 18:01:00,50.0,13.0,30.22,North,353,0.0,1.0,22,0.00,,,0.00,Meteo,2013-02-17 23:01:00,
2013-02-17 18:06:00,49.0,16.0,30.22,North,0,0.0,0.0,26,0.00,,,0.00,Meteo,2013-02-17 23:06:00,
2013-02-17 18:11:00,49.0,16.0,30.22,North,0,0.0,0.0,27,0.00,,,0.00,Meteo,2013-02-17 23:11:00,
2013-02-17 18:16:00,48.0,16.0,30.22,North,353,1.0,2.0,27,0.00,,,0.00,Meteo,2013-02-17 23:16:00,
2013-02-17 18:21:00,47.0,17.0,30.22,North,0,0.0,0.0,30,0.00,,,0.00,Meteo,2013-02-17 23:21:00,
2013-02-17 18:26:00,47.0,18.0,30.22,North,0,0.0,0.0,31,0.00,,,0.00,Meteo,2013-02-17 23:26:00,
2013-02-17 18:32:00,46.0,19.0,30.23,North,0,0.0,0.0,34,0.00,,,0.00,Meteo,2013-02-17 23:32:00,
2013-02-17 18:37:00,45.0,18.0,30.23,North,0,0.0,0.0,34,0.00,,,0.00,Meteo,2013-02-17 23:37:00,
2013-02-17 18:42:00,45.0,18.0,30.23,North,0,0.0,0.0,34,0.00,,,0.00,Meteo,2013-02-17 23:42:00,
2013-02-17 18:47:00,44.0,19.0,30.23,North,0,0.0,0.0,37,0.00,,,0.00,Meteo,2013-02-17 23:47:00,
2013-02-17 18:52:00,43.0,19.0,30.23,North,0,0.0,0.0,38,0.00,,,0.00,Meteo,2013-02-17 23:52:00,
2013-02-17 18:57:00,43.0,19.0,30.23,North,0,0.0,0.0,38,0.00,,,0.00,Meteo,2013-02-17 23:57:00,
2013-02-17 19:02:00,42.0,18.0,30.23,North,0,0.0,0.0,37,0.00,,,0.00,Meteo,2013-02-18 00:02:00,
2013-02-17 19:07:00,42.0,19.0,30.23,North,0,0.0,0.0,39,0.00,,,0.00,Meteo,2013-02-18 00:07:00,
2013-02-17 19:12:00,41.0,19.0,30.23,North,0,0.0,0.0,40,0.00,,,0.00,Meteo,2013-02-18 00:12:00,
2013-02-17 19:17:00,41.0,22.0,30.23,North,0,0.0,0.0,46,0.00,,,0.00,Meteo,2013-02-18 00:17:00,
2013-02-17 19:22:00,40.0,21.0,30.23,North,0,0.0,0.0,47,0.00,,,0.00,Meteo,2013-02-18 00:22:00,
2013-02-17 19:27:00,40.0,21.0,30.23,North,0,0.0,0.0,46,0.00,,,0.00,Meteo,2013-02-18 00:27:00,
2013-02-17 19:32:00,40.0,20.0,30.24,North,0,0.0,0.0,44,0.00,,,0.00,Meteo,2013-02-18 00:32:00,
2013-02-17 19:38:00,39.0,20.0,30.24,North,0,0.0,0.0,47,0.00,,,0.00,Meteo,2013-02-18 00:38:00,
2013-02-17 19:43:00,39.0,24.0,30.24,North,0,0.0,0.0,55,0.00,,,0.00,Meteo,2013-02-18 00:43:00,
2013-02-17 19:48:00,38.0,24.0,30.25,North,0,0.0,0.0,57,0.00,,,0.00,Meteo,2013-02-18 00:48:00,
2013-02-17 19:53:00,38.0,25.0,30.25,North,0,0.0,0.0,59,0.00,,,0.00,Meteo,2013-02-18 00:53:00,
2013-02-17 19:58:00,38.0,25.0,30.25,North,0,0.0,0.0,60,0.00,,,0.00,Meteo,2013-02-18 00:58:00,
2013-02-17 20:03:00,38.0,26.0,30.25,North,0,0.0,0.0,62,0.00,,,0.00,Meteo,2013-02-18 01:03:00,
2013-02-17 20:08:00,38.0,27.0,30.25,North,0,0.0,0.0,64,0.00,,,0.00,Meteo,2013-02-18 01:08:00,
2013-02-17 20:13:00,38.0,27.0,30.25,North,0,0.0,0.0,64,0.00,,,0.00,Meteo,2013-02-18 01:13:00,
2013-02-17 20:18:00,37.0,26.0,30.25,North,0,0.0,0.0,64,0.00,,,0.00,Meteo,2013-02-18 01:18:00,
2013-02-17 20:23:00,37.0,25.0,30.25,North,0,0.0,0.0,62,0.00,,,0.00,Meteo,2013-02-18 01:23:00,
2013-02-17 20:29:00,37.0,26.0,30.25,North,0,0.0,0.0,63,0.00,,,0.00,Meteo,2013-02-18 01:29:00,
2013-02-17 20:34:00,37.0,26.0,30.26,North,0,0.0,0.0,65,0.00,,,0.00,Meteo,2013-02-18 01:34:00,
2013-02-17 20:39:00,36.0,26.0,30.26,North,0,0.0,0.0,67,0.00,,,0.00,Meteo,2013-02-18 01:39:00,
2013-02-17 20:44:00,36.0,26.0,30.26,North,0,0.0,0.0,68,0.00,,,0.00,Meteo,2013-02-18 01:44:00,
2013-02-17 20:49:00,36.0,26.0,30.26,North,0,0.0,0.0,68,0.00,,,0.00,Meteo,2013-02-18 01:49:00,
2013-02-17 20:54:00,36.0,27.0,30.26,North,355,0.0,1.0,69,0.00,,,0.00,Meteo,2013-02-18 01:54:00,
2013-02-17 20:59:00,36.0,26.0,30.26,North,0,0.0,0.0,68,0.00,,,0.00,Meteo,2013-02-18 01:59:00,
2013-02-17 21:04:00,36.0,26.0,30.27,North,0,0.0,0.0,67,0.00,,,0.00,Meteo,2013-02-18 02:04:00,
2013-02-17 21:09:00,36.0,26.0,30.27,North,0,0.0,0.0,68,0.00,,,0.00,Meteo,2013-02-18 02:09:00,
2013-02-17 21:14:00,35.0,26.0,30.27,North,0,0.0,0.0,69,0.00,,,0.00,Meteo,2013-02-18 02:14:00,
2013-02-17 21:19:00,35.0,25.0,30.27,North,0,0.0,0.0,67,0.00,,,0.00,Meteo,2013-02-18 02:19:00,
2013-02-17 21:24:00,35.0,26.0,30.27,North,0,0.0,0.0,68,0.00,,,0.00,Meteo,2013-02-18 02:24:00,
2013-02-17 21:29:00,35.0,26.0,30.27,North,0,0.0,0.0,68,0.00,,,0.00,Meteo,2013-02-18 02:29:00,
2013-02-17 21:34:00,35.0,26.0,30.27,North,0,0.0,0.0,69,0.00,,,0.00,Meteo,2013-02-18 02:34:00,
2013-02-17 21:39:00,35.0,26.0,30.27,North,0,0.0,0.0,69,0.00,,,0.00,Meteo,2013-02-18 02:39:00,
2013-02-17 21:44:00,35.0,26.0,30.27,North,0,0.0,0.0,70,0.00,,,0.00,Meteo,2013-02-18 02:44:00,
2013-02-17 21:49:00,35.0,27.0,30.28,North,0,0.0,0.0,71,0.00,,,0.00,Meteo,2013-02-18 02:49:00,
2013-02-17 21:54:00,35.0,27.0,30.28,North,0,0.0,0.0,73,0.00,,,0.00,Meteo,2013-02-18 02:54:00,
2013-02-17 21:59:00,34.0,27.0,30.28,North,0,0.0,0.0,74,0.00,,,0.00,Meteo,2013-02-18 02:59:00,
2013-02-17 22:04:00,34.0,27.0,30.28,North,0,0.0,0.0,76,0.00,,,0.00,Meteo,2013-02-18 03:04:00,
2013-02-17 22:09:00,34.0,28.0,30.28,North,0,0.0,0.0,77,0.00,,,0.00,Meteo,2013-02-18 03:09:00,
2013-02-17 22:14:00,34.0,28.0,30.28,North,0,0.0,0.0,77,0.00,,,0.00,Meteo,2013-02-18 03:14:00,
2013-02-17 22:19:00,34.0,28.0,30.29,North,0,0.0,0.0,78,0.00,,,0.00,Meteo,2013-02-18 03:19:00,
2013-02-17 22:25:00,34.0,28.0,30.29,North,0,0.0,0.0,78,0.00,,,0.00,Meteo,2013-02-18 03:25:00,
2013-02-17 22:30:00,34.0,28.0,30.29,North,0,0.0,0.0,78,0.00,,,0.00,Meteo,2013-02-18 03:30:00,
2013-02-17 22:36:00,34.0,29.0,30.29,North,0,0.0,0.0,81,0.00,,,0.00,Meteo,2013-02-18 03:36:00,
2013-02-17 22:41:00,33.0,28.0,30.29,North,0,0.0,0.0,81,0.00,,,0.00,Meteo,2013-02-18 03:41:00,
2013-02-17 22:46:00,33.0,28.0,30.29,North,0,0.0,0.0,82,0.00,,,0.00,Meteo,2013-02-18 03:46:00,
2013-02-17 22:51:00,33.0,28.0,30.29,North,0,0.0,0.0,82,0.00,,,0.00,Meteo,2013-02-18 03:51:00,
2013-02-17 22:56:00,33.0,28.0,30.29,North,0,0.0,0.0,82,0.00,,,0.00,Meteo,2013-02-18 03:56:00,
2013-02-17 23:02:00,33.0,28.0,30.29,North,0,0.0,0.0,83,0.00,,,0.00,Meteo,2013-02-18 04:02:00,
2013-02-17 23:07:00,33.0,28.0,30.29,North,0,0.0,0.0,83,0.00,,,0.00,Meteo,2013-02-18 04:07:00,
2013-02-17 23:12:00,33.0,29.0,30.29,North,0,0.0,0.0,85,0.00,,,0.00,Meteo,2013-02-18 04:12:00,
2013-02-17 23:17:00,33.0,29.0,30.29,North,0,0.0,0.0,85,0.00,,,0.00,Meteo,2013-02-18 04:17:00,
2013-02-17 23:22:00,32.0,28.0,30.29,North,0,0.0,0.0,86,0.00,,,0.00,Meteo,2013-02-18 04:22:00,
2013-02-17 23:27:00,32.0,28.0,30.29,North,0,0.0,0.0,86,0.00,,,0.00,Meteo,2013-02-18 04:27:00,
2013-02-17 23:32:00,32.0,29.0,30.29,North,0,0.0,0.0,87,0.00,,,0.00,Meteo,2013-02-18 04:32:00,
2013-02-17 23:37:00,32.0,29.0,30.29,North,0,0.0,0.0,87,0.00,,,0.00,Meteo,2013-02-18 04:37:00,
2013-02-17 23:42:00,32.0,29.0,30.29,North,0,0.0,0.0,87,0.00,,,0.00,Meteo,2013-02-18 04:42:00,
2013-02-17 23:47:00,32.0,29.0,30.29,North,0,0.0,0.0,87,0.00,,,0.00,Meteo,2013-02-18 04:47:00,
2013-02-17 23:52:00,32.0,29.0,30.29,North,0,0.0,0.0,87,0.00,,,0.00,Meteo,2013-02-18 04:52:00,
2013-02-17 23:58:00,32.0,29.0,30.29,North,0,0.0,0.0,87,0.00,,,0.00,Meteo,2013-02-18 04:58:00,